Terminal Aerodrome Forecast
Issued by NWS

Home | Current Version | Previous Version | Text Only | Print | Product List | Glossary On
Versions: 1 2 3 4 5 6 7 8 9 10 11 12 13 14 15
066
FTUS43 KMQT 232333
TAFIWD
TAF
KIWD 232333Z 2400/2424 19009KT P6SM FEW250
     FM240800 18010KT P6SM BKN090
     FM241100 18009KT 5SM -SHRA OVC020
     FM241200 18008KT 4SM -SHRA OVC010
     FM241400 19008KT 5SM -SHRA OVC015
     FM241800 23008KT P6SM OVC020
     FM242000 25008KT P6SM SCT035
      AMD LTD TO CLD VIS AND WIND=

USA.gov is the U.S. government's official web portal to all federal, state and local government web resources and services.